Melbourne Airport

Airport
ICAO code: 
YMML
IATA Code: 
MEL
Summary
ICAO Region: 
APAC
Territory: 
Location: 
Tullamarine, Victoria
Serving: 
Melbourne
Elevation: 
434 ft
Coordinates: 
Aerial View: 
37° 40' 10.972" S, 144° 50' 54.542" E
Airport BS: 
Bird Strike
Airport WX: 
Cumulonimbus
Metar
Observation
YMML 281500Z 29007KT CAVOK 10/09 Q1019
Station
Melbourne Airport
Date/Time
2021-11-28 15:00:00
Wind direction
290°
Wind speed
07 kts
Lowest cloud amount
clouds and visibility OK
Temperature
10°C
Dew point
9°C
Humidity
93%
QNH
1019 hPa
Weather condition
n/a

Description

Melbourne Airport, also known as Tullamarine Airport, is the primary airport serving the city of Melbourne and the second busiest in Australia.

Climatology

Mild temperate oceanic climate (Köppen climate classification Cfb). Melbourne is known for its changeable weather conditions caused by the city's location on the boundary of the very hot inland areas and the cold southern ocean. Cold fronts in the spring and summer months can be associated with severe weather.

Runways

Designator Length Width Surface Rops
9/27 2286 45 ASP Yes/Yes
16/34 3657 45 ASP Yes/Yes

SKYbrary Partners:

Safety knowledge contributed by: